createdAt,value
2019-03-04T00:00:55.626Z,2.90
2019-03-04T00:03:23.905Z,3.23
2019-03-04T00:05:51.565Z,3.43
2019-03-04T00:08:19.696Z,4.07
2019-03-04T00:10:49.192Z,3.90
2019-03-04T00:13:18.161Z,3.30
2019-03-04T00:15:46.438Z,3.90
2019-03-04T00:18:14.722Z,3.63
2019-03-04T00:20:46.199Z,4.27
2019-03-04T00:23:13.687Z,4.03
2019-03-04T00:25:41.465Z,3.20
2019-03-04T00:28:09.798Z,3.30
2019-03-04T00:30:39.033Z,3.20
2019-03-04T00:33:07.771Z,4.00
2019-03-04T00:35:35.663Z,3.27
2019-03-04T00:38:04.351Z,3.17
2019-03-04T00:40:32.057Z,3.10
2019-03-04T00:42:59.992Z,3.80
2019-03-04T00:45:27.689Z,2.97
2019-03-04T00:47:55.329Z,3.30
2019-03-04T00:50:23.711Z,2.87
2019-03-04T00:52:52.295Z,3.00
2019-03-04T00:55:20.002Z,2.87
2019-03-04T00:57:48.120Z,2.70
2019-03-04T01:00:18.076Z,3.50
2019-03-04T01:02:46.434Z,3.17
2019-03-04T01:05:14.422Z,2.30
2019-03-04T01:07:45.513Z,2.17
2019-03-04T01:10:14.774Z,3.63
2019-03-04T01:12:43.161Z,2.73
2019-03-04T01:15:12.250Z,2.87
2019-03-04T01:17:40.582Z,2.80
2019-03-04T01:20:11.118Z,2.50
2019-03-04T01:22:38.777Z,3.23
2019-03-04T01:25:08.240Z,2.90
2019-03-04T01:27:36.161Z,2.60
2019-03-04T01:30:05.165Z,2.10
2019-03-04T01:32:33.151Z,2.83
2019-03-04T01:35:01.189Z,2.37
2019-03-04T01:37:28.566Z,2.37
2019-03-04T01:39:57.052Z,2.47
2019-03-04T01:42:25.020Z,2.57
2019-03-04T01:44:52.956Z,2.70
2019-03-04T01:47:21.480Z,2.50
2019-03-04T01:49:49.596Z,3.20
2019-03-04T01:52:17.301Z,2.53
2019-03-04T01:54:46.174Z,3.40
2019-03-04T01:57:15.080Z,2.93
2019-03-04T01:59:42.630Z,3.17
2019-03-04T02:02:11.434Z,3.00
2019-03-04T02:04:39.398Z,2.37
2019-03-04T02:07:07.720Z,2.00
2019-03-04T02:09:36.127Z,1.90
2019-03-04T02:12:03.977Z,2.43
2019-03-04T02:14:31.246Z,2.00
2019-03-04T02:17:00.135Z,1.60
2019-03-04T02:19:28.225Z,1.37
2019-03-04T02:21:56.979Z,1.87
2019-03-04T02:24:25.512Z,1.60
2019-03-04T02:26:57.352Z,1.60
2019-03-04T02:29:26.076Z,1.60
2019-03-04T02:31:56.610Z,1.33
2019-03-04T02:34:25.155Z,1.40
2019-03-04T02:36:53.541Z,1.80
2019-03-04T02:39:22.218Z,1.37
2019-03-04T02:41:50.594Z,1.10
2019-03-04T02:44:18.589Z,1.27
2019-03-04T02:46:48.031Z,2.17
2019-03-04T02:49:16.866Z,2.10
2019-03-04T02:51:45.226Z,1.97
2019-03-04T02:54:14.270Z,1.40
2019-03-04T02:56:42.303Z,1.53
2019-03-04T02:59:10.678Z,1.80
2019-03-04T03:01:38.655Z,1.57
2019-03-04T03:04:06.738Z,2.10
2019-03-04T03:06:34.712Z,1.33
2019-03-04T03:09:04.616Z,1.80
2019-03-04T03:11:34.187Z,1.93
2019-03-04T03:14:01.888Z,1.80
2019-03-04T03:16:30.481Z,1.73
2019-03-04T03:18:58.176Z,2.30
2019-03-04T03:21:26.391Z,1.90
2019-03-04T03:23:54.272Z,2.03
2019-03-04T03:26:22.045Z,1.80
2019-03-04T03:28:50.111Z,1.83
2019-03-04T03:31:19.787Z,1.60
2019-03-04T03:33:48.707Z,1.63
2019-03-04T03:36:17.012Z,1.80
2019-03-04T03:38:45.471Z,1.77
2019-03-04T03:41:14.267Z,1.43
2019-03-04T03:43:42.845Z,1.70
2019-03-04T03:46:11.197Z,1.37
2019-03-04T03:48:39.234Z,1.70
2019-03-04T03:51:07.995Z,1.87
2019-03-04T03:53:36.082Z,2.47
2019-03-04T03:56:04.024Z,1.90
2019-03-04T03:58:33.224Z,1.93
2019-03-04T04:01:02.334Z,1.73
2019-03-04T04:03:29.969Z,2.20
2019-03-04T04:05:58.009Z,2.13
2019-03-04T04:08:27.182Z,2.10
2019-03-04T04:10:56.000Z,2.57
2019-03-04T04:13:26.208Z,1.97
2019-03-04T04:15:54.369Z,2.03
2019-03-04T04:18:22.703Z,2.03
2019-03-04T04:20:50.579Z,2.07
2019-03-04T04:23:18.635Z,2.00
2019-03-04T04:25:45.875Z,2.17
2019-03-04T04:28:13.225Z,2.83
2019-03-04T04:30:42.115Z,2.90
2019-03-04T04:33:10.542Z,2.23
2019-03-04T04:35:39.189Z,2.40
2019-03-04T04:38:07.750Z,2.40
2019-03-04T04:40:36.206Z,2.47
2019-03-04T04:43:03.865Z,2.13
2019-03-04T04:45:32.335Z,2.70
2019-03-04T04:48:00.522Z,2.13
2019-03-04T04:50:29.016Z,2.57
2019-03-04T04:52:56.319Z,2.50
2019-03-04T04:55:24.729Z,2.63
2019-03-04T04:57:52.756Z,2.90
2019-03-04T05:00:20.608Z,2.67
2019-03-04T05:02:48.161Z,2.43
2019-03-04T05:05:16.156Z,2.90
2019-03-04T05:07:44.623Z,2.60
2019-03-04T05:10:14.705Z,2.93
2019-03-04T05:12:43.172Z,3.00
2019-03-04T05:15:11.464Z,2.70
2019-03-04T05:17:39.888Z,2.80
2019-03-04T05:20:11.085Z,2.77
2019-03-04T05:22:39.569Z,2.80
2019-03-04T05:25:08.253Z,2.97
2019-03-04T05:27:36.939Z,3.03
2019-03-04T05:30:05.964Z,3.03
2019-03-04T05:32:35.642Z,2.97
2019-03-04T05:35:04.434Z,3.43
2019-03-04T05:37:32.823Z,2.87
2019-03-04T05:40:01.710Z,2.97
2019-03-04T05:42:29.677Z,2.93
2019-03-04T05:44:58.404Z,3.50
2019-03-04T05:50:12.690Z,3.30
2019-03-04T05:52:40.711Z,4.00
2019-03-04T05:55:13.066Z,3.07
2019-03-04T05:57:41.385Z,3.17
2019-03-04T06:00:13.250Z,3.90
2019-03-04T06:02:41.709Z,3.53
2019-03-04T06:05:12.427Z,3.47
2019-03-04T06:07:43.715Z,3.43
2019-03-04T06:10:12.040Z,3.33
2019-03-04T06:12:40.472Z,3.83
2019-03-04T06:15:12.314Z,3.50
2019-03-04T06:17:40.883Z,3.70
2019-03-04T06:20:08.739Z,3.30
2019-03-04T06:22:37.795Z,3.23
2019-03-04T06:25:08.116Z,3.73
2019-03-04T06:27:37.903Z,4.30
2019-03-04T06:30:06.959Z,3.63
2019-03-04T06:32:35.041Z,3.60
2019-03-04T06:35:03.913Z,3.70
2019-03-04T06:37:32.244Z,3.33
2019-03-04T06:40:00.696Z,3.43
2019-03-04T06:42:28.700Z,2.87
2019-03-04T06:44:57.560Z,3.00
2019-03-04T06:47:25.969Z,4.37
2019-03-04T06:49:54.431Z,3.43
2019-03-04T06:52:22.832Z,3.27
2019-03-04T06:55:41.861Z,3.00
2019-03-04T06:58:10.643Z,3.00
2019-03-04T07:01:11.305Z,3.13
2019-03-04T07:03:51.773Z,2.50
2019-03-04T07:06:19.792Z,2.67
2019-03-04T07:09:08.771Z,2.30
2019-03-04T07:11:36.979Z,2.60
2019-03-04T07:14:05.311Z,2.20
2019-03-04T07:16:33.314Z,2.70
2019-03-04T07:19:03.565Z,2.03
2019-03-04T07:21:31.474Z,2.20
2019-03-04T07:23:59.748Z,2.20
2019-03-04T07:26:27.729Z,1.70
2019-03-04T07:28:56.131Z,1.50
2019-03-04T07:31:24.535Z,2.10
2019-03-04T07:33:53.607Z,2.87
2019-03-04T07:36:21.271Z,1.77
2019-03-04T07:38:57.084Z,1.70
2019-03-04T07:41:26.249Z,1.47
2019-03-04T07:43:54.336Z,1.40
2019-03-04T07:46:22.400Z,1.47
2019-03-04T07:48:56.287Z,1.80
2019-03-04T07:51:24.396Z,1.80
2019-03-04T07:53:52.527Z,2.10
2019-03-04T07:56:20.196Z,1.40
2019-03-04T07:58:47.886Z,1.83
2019-03-04T08:01:16.455Z,2.20
2019-03-04T08:03:45.228Z,1.70
2019-03-04T08:06:13.342Z,1.70
2019-03-04T08:09:14.567Z,1.13
2019-03-04T08:12:15.417Z,1.13
2019-03-04T08:14:43.123Z,2.00
2019-03-04T08:17:11.371Z,1.37
2019-03-04T08:19:39.327Z,1.57
2019-03-04T08:22:07.285Z,1.70
2019-03-04T08:24:36.057Z,0.90
2019-03-04T08:27:06.215Z,1.17
2019-03-04T08:29:34.690Z,1.30
2019-03-04T08:32:02.759Z,1.53
2019-03-04T08:34:31.458Z,1.20
2019-03-04T08:36:59.397Z,1.70
2019-03-04T08:39:27.822Z,1.07
2019-03-04T08:41:55.969Z,1.27
2019-03-04T08:44:23.319Z,1.10
2019-03-04T08:46:51.387Z,1.40
2019-03-04T08:49:19.452Z,1.43
2019-03-04T08:51:47.326Z,1.10
2019-03-04T08:54:15.808Z,1.20
2019-03-04T08:56:43.898Z,1.20
2019-03-04T08:59:12.243Z,1.87
2019-03-04T09:01:40.238Z,2.03
2019-03-04T09:04:08.308Z,1.10
2019-03-04T09:06:55.392Z,0.97
2019-03-04T09:09:23.749Z,1.00
2019-03-04T09:11:51.752Z,1.50
2019-03-04T09:14:20.661Z,1.17
2019-03-04T09:16:49.170Z,1.50
2019-03-04T09:19:17.204Z,0.90
2019-03-04T09:21:45.680Z,1.10
2019-03-04T09:24:14.082Z,1.23
2019-03-04T09:26:42.231Z,1.43
2019-03-04T09:29:10.402Z,1.10
2019-03-04T09:31:38.992Z,1.00
2019-03-04T09:34:08.459Z,1.50
2019-03-04T09:36:36.885Z,1.70
2019-03-04T09:39:06.158Z,1.40
2019-03-04T09:41:34.556Z,0.90
2019-03-04T09:44:02.267Z,1.07
2019-03-04T09:46:30.416Z,1.10
2019-03-04T09:48:58.675Z,1.20
2019-03-04T09:51:27.459Z,1.40
2019-03-04T09:53:56.823Z,1.10
2019-03-04T09:56:24.126Z,1.40
2019-03-04T09:58:54.499Z,1.33
2019-03-04T10:01:41.555Z,1.63
2019-03-04T10:04:50.202Z,1.77
2019-03-04T10:08:02.219Z,1.70
2019-03-04T10:11:11.539Z,1.80
2019-03-04T10:14:04.899Z,1.10
2019-03-04T10:17:00.622Z,1.30
2019-03-04T10:20:04.232Z,1.80
2019-03-04T10:23:07.831Z,1.10
2019-03-04T10:25:52.178Z,1.37
2019-03-04T10:28:53.181Z,1.27
2019-03-04T10:31:49.466Z,1.00
2019-03-04T10:34:49.393Z,1.70
2019-03-04T10:37:51.941Z,1.20
2019-03-04T10:40:59.245Z,1.93
2019-03-04T10:44:20.917Z,1.73
2019-03-04T10:46:56.450Z,1.73
2019-03-04T10:49:26.351Z,1.10
2019-03-04T10:51:54.955Z,1.70
2019-03-04T10:54:23.147Z,1.50
2019-03-04T10:56:50.865Z,1.57
2019-03-04T10:59:19.690Z,1.30
2019-03-04T11:01:49.988Z,1.10
2019-03-04T11:04:17.960Z,1.50
2019-03-04T11:06:45.657Z,1.57
2019-03-04T11:09:13.900Z,1.10
2019-03-04T11:11:43.388Z,1.10
2019-03-04T11:14:12.674Z,1.53
2019-03-04T11:16:40.711Z,2.50
2019-03-04T11:19:09.469Z,1.60
2019-03-04T11:21:38.157Z,1.40
2019-03-04T11:24:07.791Z,1.30
2019-03-04T11:26:35.506Z,1.90
2019-03-04T11:29:04.213Z,1.13
2019-03-04T11:31:32.849Z,1.80
2019-03-04T11:34:01.337Z,1.03
2019-03-04T11:36:29.793Z,2.00
2019-03-04T11:39:21.301Z,2.43
2019-03-04T11:41:50.166Z,1.43
2019-03-04T11:44:18.495Z,1.90
2019-03-04T11:46:46.241Z,1.50
2019-03-04T11:49:15.417Z,1.43
2019-03-04T11:51:43.962Z,1.70
2019-03-04T11:54:12.672Z,1.80
2019-03-04T11:56:41.479Z,1.37
2019-03-04T11:59:10.152Z,2.07
2019-03-04T12:01:44.629Z,1.23
2019-03-04T12:04:12.739Z,0.77
2019-03-04T12:06:40.419Z,0.70
2019-03-04T12:09:13.393Z,0.80
2019-03-04T12:11:42.097Z,0.67
2019-03-04T12:14:10.204Z,1.17
2019-03-04T12:16:38.432Z,1.13
2019-03-04T12:19:06.526Z,0.90
2019-03-04T12:21:34.995Z,0.90
2019-03-04T12:24:02.322Z,1.47
2019-03-04T12:26:30.868Z,1.17
2019-03-04T12:28:58.633Z,2.20
2019-03-04T12:31:30.717Z,1.47
2019-03-04T12:33:58.332Z,1.50
2019-03-04T12:36:29.571Z,1.93
2019-03-04T12:38:58.033Z,1.73
2019-03-04T12:41:25.877Z,1.70
2019-03-04T12:43:55.123Z,1.30
2019-03-04T12:46:23.282Z,1.20
2019-03-04T12:48:51.382Z,1.13
2019-03-04T12:51:23.391Z,1.10
2019-03-04T12:53:50.675Z,1.20
2019-03-04T12:56:18.396Z,0.83
2019-03-04T12:58:47.255Z,0.83
2019-03-04T13:01:15.975Z,1.10
2019-03-04T13:03:43.901Z,0.90
2019-03-04T13:06:12.670Z,0.60
2019-03-04T13:08:40.536Z,1.00
2019-03-04T13:11:09.657Z,1.00
2019-03-04T13:13:38.022Z,0.90
2019-03-04T13:16:06.500Z,0.90
2019-03-04T13:18:34.899Z,0.70
2019-03-04T13:21:03.421Z,1.10
2019-03-04T13:23:31.254Z,1.40
2019-03-04T13:26:01.567Z,1.00
2019-03-04T13:28:30.354Z,0.93
2019-03-04T13:30:58.734Z,1.07
2019-03-04T13:33:26.818Z,1.00
2019-03-04T13:35:56.529Z,1.13
2019-03-04T13:38:24.290Z,1.60
2019-03-04T13:40:51.966Z,1.33
2019-03-04T13:43:22.670Z,1.37
2019-03-04T13:45:50.392Z,1.53
2019-03-04T13:48:19.129Z,1.77
2019-03-04T13:51:38.658Z,0.90
2019-03-04T13:54:06.732Z,0.90
2019-03-04T13:56:35.371Z,1.00
2019-03-04T13:59:04.507Z,0.87
2019-03-04T14:01:33.453Z,0.97
2019-03-04T14:04:02.547Z,0.90
2019-03-04T14:06:29.856Z,1.03
2019-03-04T14:09:04.152Z,1.13
2019-03-04T14:11:32.440Z,0.60
2019-03-04T14:14:01.961Z,0.90
2019-03-04T14:16:30.181Z,0.63
2019-03-04T14:18:58.872Z,0.93
2019-03-04T14:21:27.686Z,1.40
2019-03-04T14:23:56.254Z,1.27
2019-03-04T14:26:24.588Z,1.10
2019-03-04T14:28:52.914Z,1.03
2019-03-04T14:31:21.003Z,1.90
2019-03-04T14:33:49.189Z,1.40
2019-03-04T14:36:18.534Z,1.40
2019-03-04T14:38:47.023Z,1.43
2019-03-04T14:41:15.967Z,1.30
2019-03-04T14:43:44.508Z,1.30
2019-03-04T14:46:21.415Z,1.80
2019-03-04T14:48:49.910Z,1.00
2019-03-04T14:51:19.029Z,0.40
2019-03-04T14:53:47.438Z,0.60
2019-03-04T14:56:22.386Z,0.47
2019-03-04T14:58:46.176Z,0.40
2019-03-04T15:01:15.010Z,0.50
2019-03-04T15:03:43.058Z,0.70
2019-03-04T15:06:11.722Z,0.60
2019-03-04T15:08:41.915Z,0.40
2019-03-04T15:11:10.829Z,0.40
2019-03-04T15:13:39.062Z,0.50
2019-03-04T15:16:08.075Z,0.30
2019-03-04T15:18:36.575Z,0.80
2019-03-04T15:21:09.597Z,0.40
2019-03-04T15:23:38.310Z,0.60
2019-03-04T15:26:06.192Z,0.60
2019-03-04T15:28:34.709Z,0.60
2019-03-04T15:31:02.459Z,0.60
2019-03-04T15:33:30.226Z,0.53
2019-03-04T15:35:59.108Z,0.50
2019-03-04T15:38:29.255Z,0.40
2019-03-04T15:40:57.719Z,0.70
2019-03-04T15:43:26.765Z,0.60
2019-03-04T15:45:56.182Z,0.50
2019-03-04T15:48:25.799Z,2.10
2019-03-04T15:50:55.634Z,0.50
2019-03-04T15:53:24.354Z,0.70
2019-03-04T15:55:52.504Z,0.50
2019-03-04T15:58:21.067Z,0.80
2019-03-04T16:00:49.700Z,0.70
2019-03-04T16:03:18.315Z,0.60
2019-03-04T16:05:46.947Z,0.50
2019-03-04T16:08:15.188Z,1.20
2019-03-04T16:10:44.064Z,1.77
2019-03-04T16:13:12.173Z,1.30
2019-03-04T16:15:40.906Z,1.00
2019-03-04T16:18:09.463Z,0.90
2019-03-04T16:20:38.060Z,1.10
2019-03-04T16:23:07.318Z,1.87
2019-03-04T16:25:36.029Z,1.67
2019-03-04T16:28:10.205Z,1.47
2019-03-04T16:30:38.928Z,1.83
2019-03-04T16:33:06.720Z,1.40
2019-03-04T16:35:34.879Z,2.23
2019-03-04T16:38:03.375Z,1.23
2019-03-04T16:40:31.839Z,1.43
2019-03-04T16:42:59.934Z,2.67
2019-03-04T16:45:28.855Z,1.57
2019-03-04T16:47:57.099Z,1.60
2019-03-04T16:50:24.927Z,1.47
2019-03-04T16:52:53.234Z,1.73
2019-03-04T16:55:21.868Z,3.03
2019-03-04T16:57:49.581Z,1.73
2019-03-04T17:00:17.172Z,1.70
2019-03-04T17:02:45.628Z,1.60
2019-03-04T17:05:14.803Z,1.93
2019-03-04T17:07:43.240Z,1.50
2019-03-04T17:10:11.624Z,1.60
2019-03-04T17:12:39.828Z,1.57
2019-03-04T17:15:10.255Z,3.03
2019-03-04T17:17:39.283Z,1.50
2019-03-04T17:20:09.274Z,1.50
2019-03-04T17:22:37.364Z,1.80
2019-03-04T17:25:07.269Z,3.03
2019-03-04T17:27:34.915Z,2.30
2019-03-04T17:30:04.210Z,1.97
2019-03-04T17:32:32.009Z,2.50
2019-03-04T17:34:59.346Z,1.80
2019-03-04T17:37:28.044Z,2.47
2019-03-04T17:39:55.857Z,1.80
2019-03-04T17:42:24.024Z,2.80
2019-03-04T17:44:52.403Z,3.03
2019-03-04T17:47:20.393Z,2.73
2019-03-04T17:49:47.805Z,2.33
2019-03-04T17:52:16.421Z,2.50
2019-03-04T17:54:44.546Z,2.57
2019-03-04T17:57:13.666Z,4.30
2019-03-04T17:59:41.849Z,3.00
2019-03-04T18:02:10.238Z,3.53
2019-03-04T18:04:39.080Z,2.27
2019-03-04T18:07:08.436Z,4.20
2019-03-04T18:09:36.923Z,2.93
2019-03-04T18:12:05.572Z,3.30
2019-03-04T18:14:34.549Z,3.17
2019-03-04T18:17:03.024Z,2.20
2019-03-04T18:19:31.942Z,1.80
2019-03-04T18:22:00.219Z,2.23
2019-03-04T18:24:29.182Z,2.17
2019-03-04T18:27:04.834Z,3.77
2019-03-04T18:30:17.284Z,1.77
2019-03-04T18:33:50.916Z,3.13
2019-03-04T18:36:22.243Z,2.30
2019-03-04T18:39:07.530Z,1.90
2019-03-04T18:41:45.038Z,2.37
2019-03-04T18:44:34.018Z,3.37
2019-03-04T18:47:14.957Z,2.33
2019-03-04T18:49:43.413Z,3.17
2019-03-04T18:52:14.740Z,3.43
2019-03-04T18:54:45.241Z,2.17
2019-03-04T18:57:12.984Z,3.07
2019-03-04T18:59:41.243Z,3.57
2019-03-04T19:02:08.923Z,2.57
2019-03-04T19:04:38.201Z,2.57
2019-03-04T19:07:06.289Z,2.93
2019-03-04T19:09:34.989Z,2.77
2019-03-04T19:12:03.638Z,3.77
2019-03-04T19:14:34.824Z,2.40
2019-03-04T19:17:02.203Z,3.20
2019-03-04T19:19:39.158Z,2.90
2019-03-04T19:22:08.280Z,1.80
2019-03-04T19:24:35.995Z,2.20
2019-03-04T19:27:05.331Z,4.60
2019-03-04T19:29:33.497Z,2.30
2019-03-04T19:32:01.952Z,3.00
2019-03-04T19:34:29.960Z,3.23
2019-03-04T19:36:58.077Z,2.13
2019-03-04T19:39:26.511Z,2.03
2019-03-04T19:41:54.854Z,2.80
2019-03-04T19:44:22.299Z,2.37
2019-03-04T19:46:50.192Z,2.13
2019-03-04T19:49:17.980Z,3.53
2019-03-04T19:51:46.496Z,2.50
2019-03-04T19:54:14.605Z,2.70
2019-03-04T19:56:45.740Z,2.50
2019-03-04T19:59:13.806Z,3.53
2019-03-04T20:01:42.703Z,3.23
2019-03-04T20:04:10.826Z,3.47
2019-03-04T20:06:40.743Z,2.33
2019-03-04T20:09:08.903Z,3.30
2019-03-04T20:11:38.278Z,3.30
2019-03-04T20:14:05.984Z,3.20
2019-03-04T20:16:37.671Z,3.87
2019-03-04T20:19:05.462Z,3.57
2019-03-04T20:21:34.634Z,3.03
2019-03-04T20:24:02.761Z,3.07
2019-03-04T20:26:30.469Z,2.43
2019-03-04T20:28:58.554Z,3.07
2019-03-04T20:31:26.506Z,2.73
2019-03-04T20:33:55.091Z,3.30
2019-03-04T20:36:23.091Z,4.10
2019-03-04T20:38:51.257Z,4.07
2019-03-04T20:41:19.340Z,3.57
2019-03-04T20:43:47.162Z,3.13
2019-03-04T20:46:14.862Z,3.53
2019-03-04T20:48:43.127Z,3.10
2019-03-04T20:51:11.244Z,3.20
2019-03-04T20:53:39.792Z,2.93
2019-03-04T20:56:07.866Z,3.60
2019-03-04T20:58:35.512Z,3.40
2019-03-04T21:01:04.403Z,3.17
2019-03-04T21:03:35.103Z,3.40
2019-03-04T21:06:02.349Z,2.73
2019-03-04T21:08:30.590Z,2.93
2019-03-04T21:10:58.759Z,4.57
2019-03-04T21:13:35.152Z,3.43
2019-03-04T21:15:56.990Z,13.63
2019-03-04T21:18:24.736Z,16.03
2019-03-04T21:20:52.716Z,9.60
2019-03-04T21:23:20.842Z,9.93
2019-03-04T21:25:51.730Z,18.87
2019-03-04T21:28:24.473Z,13.33
2019-03-04T21:31:27.208Z,5.10
2019-03-04T21:33:59.370Z,6.17
2019-03-04T21:36:45.421Z,5.47
2019-03-04T21:39:13.723Z,6.77
2019-03-04T21:42:16.465Z,5.00
2019-03-04T21:44:51.008Z,12.63
2019-03-04T21:47:20.521Z,9.57
2019-03-04T21:49:50.078Z,6.90
2019-03-04T21:52:32.921Z,7.00
2019-03-04T21:55:01.683Z,7.37
2019-03-04T21:57:37.826Z,6.63
2019-03-04T22:00:10.023Z,6.80
2019-03-04T22:02:57.221Z,7.53
2019-03-04T22:05:25.539Z,9.20
2019-03-04T22:07:53.908Z,9.67
2019-03-04T22:10:22.181Z,10.00
2019-03-04T22:12:50.423Z,15.43
2019-03-04T22:15:18.376Z,14.23
2019-03-04T22:17:46.388Z,13.43
2019-03-04T22:20:14.697Z,9.70
2019-03-04T22:22:42.317Z,19.17
2019-03-04T22:25:10.545Z,13.13
2019-03-04T22:27:38.508Z,11.67
2019-03-04T22:30:07.588Z,9.23
2019-03-04T22:32:35.852Z,9.20
2019-03-04T22:35:04.491Z,8.83
2019-03-04T22:37:32.771Z,9.23
2019-03-04T22:40:00.398Z,9.83
2019-03-04T22:42:28.141Z,11.20
2019-03-04T22:44:56.268Z,9.63
2019-03-04T22:47:24.387Z,9.60
2019-03-04T22:49:52.249Z,8.73
2019-03-04T22:52:21.008Z,14.30
2019-03-04T22:54:48.302Z,14.30
2019-03-04T22:57:16.140Z,13.53
2019-03-04T22:59:44.253Z,12.90
2019-03-04T23:02:12.049Z,16.63
2019-03-04T23:04:59.106Z,15.70
2019-03-04T23:07:28.655Z,10.60
2019-03-04T23:09:58.194Z,9.00
2019-03-04T23:12:52.056Z,2.87
2019-03-04T23:15:22.337Z,2.97
2019-03-04T23:17:50.715Z,2.20
2019-03-04T23:20:18.930Z,2.00
2019-03-04T23:22:46.882Z,3.37
2019-03-04T23:25:15.791Z,2.50
2019-03-04T23:27:43.726Z,5.37
2019-03-04T23:30:12.836Z,2.93
2019-03-04T23:32:40.667Z,2.40
2019-03-04T23:35:09.199Z,1.97
2019-03-04T23:37:37.468Z,2.30
2019-03-04T23:40:05.798Z,2.23
2019-03-04T23:42:33.728Z,2.87
2019-03-04T23:45:01.714Z,2.90
2019-03-04T23:47:29.931Z,2.60
2019-03-04T23:50:10.037Z,2.30
2019-03-04T23:52:37.662Z,2.50
2019-03-04T23:55:06.078Z,2.20
2019-03-04T23:57:34.592Z,1.70
